createdAt,value
2017-09-26T00:00:12.382Z,8.10
2017-09-26T00:02:39.673Z,9.30
2017-09-26T00:05:06.945Z,8.33
2017-09-26T00:07:34.251Z,8.63
2017-09-26T00:10:01.518Z,8.00
2017-09-26T00:12:28.783Z,8.60
2017-09-26T00:14:56.078Z,8.20
2017-09-26T00:17:23.342Z,7.90
2017-09-26T00:19:50.606Z,7.80
2017-09-26T00:22:17.909Z,8.50
2017-09-26T00:24:45.180Z,8.50
2017-09-26T00:27:12.484Z,8.20
2017-09-26T00:29:39.751Z,8.03
2017-09-26T00:32:07.028Z,8.50
2017-09-26T00:34:34.329Z,7.53
2017-09-26T00:37:01.588Z,9.33
2017-09-26T00:39:28.890Z,9.40
2017-09-26T00:41:56.155Z,9.30
2017-09-26T00:44:23.430Z,10.07
2017-09-26T00:46:50.710Z,9.87
2017-09-26T00:49:17.973Z,8.90
2017-09-26T00:51:45.258Z,9.97
2017-09-26T00:54:12.535Z,10.80
2017-09-26T00:56:39.826Z,9.70
2017-09-26T00:59:07.099Z,9.97
2017-09-26T01:01:35.018Z,10.23
2017-09-26T01:04:08.899Z,9.50
2017-09-26T01:06:41.751Z,9.17
2017-09-26T01:09:09.038Z,9.03
2017-09-26T01:11:36.294Z,9.87
2017-09-26T01:14:03.615Z,9.10
2017-09-26T01:16:30.880Z,8.97
2017-09-26T01:18:58.143Z,9.77
2017-09-26T01:21:25.439Z,8.87
2017-09-26T01:23:52.699Z,7.80
2017-09-26T01:26:20.001Z,10.27
2017-09-26T01:28:47.292Z,8.33
2017-09-26T01:31:14.591Z,7.60
2017-09-26T01:33:41.869Z,8.73
2017-09-26T01:36:09.127Z,9.33
2017-09-26T01:38:36.411Z,8.90
2017-09-26T01:41:09.595Z,10.70
2017-09-26T01:43:36.868Z,9.90
2017-09-26T01:46:04.146Z,8.80
2017-09-26T01:48:31.443Z,10.47
2017-09-26T01:50:58.711Z,8.00
2017-09-26T01:53:25.989Z,9.30
2017-09-26T01:55:53.266Z,9.30
2017-09-26T01:58:30.463Z,7.33
2017-09-26T02:00:57.746Z,8.07
2017-09-26T02:03:25.007Z,7.70
2017-09-26T02:05:52.295Z,8.33
2017-09-26T02:08:19.570Z,9.40
2017-09-26T02:10:46.874Z,10.57
2017-09-26T02:13:14.148Z,10.20
2017-09-26T02:15:41.407Z,8.00
2017-09-26T02:18:08.683Z,8.80
2017-09-26T02:20:35.950Z,9.40
2017-09-26T02:23:03.254Z,8.70
2017-09-26T02:25:30.517Z,10.07
2017-09-26T02:27:57.796Z,9.73
2017-09-26T02:30:25.088Z,9.80
2017-09-26T02:32:52.376Z,9.17
2017-09-26T02:35:19.643Z,8.20
2017-09-26T02:37:46.939Z,10.20
2017-09-26T02:40:14.369Z,10.90
2017-09-26T02:42:41.662Z,10.20
2017-09-26T02:45:08.931Z,10.53
2017-09-26T02:47:36.216Z,10.07
2017-09-26T02:50:03.512Z,10.90
2017-09-26T02:52:30.807Z,11.60
2017-09-26T02:54:58.116Z,12.23
2017-09-26T02:57:25.414Z,12.83
2017-09-26T02:59:52.726Z,12.13
2017-09-26T03:02:19.995Z,11.80
2017-09-26T03:04:47.262Z,11.23
2017-09-26T03:07:14.564Z,11.50
2017-09-26T03:09:41.834Z,12.00
2017-09-26T03:12:09.128Z,9.80
2017-09-26T03:14:36.418Z,9.67
2017-09-26T03:17:03.684Z,9.43
2017-09-26T03:19:30.974Z,9.40
2017-09-26T03:21:58.242Z,9.80
2017-09-26T03:24:25.508Z,9.73
2017-09-26T03:26:52.802Z,10.60
2017-09-26T03:29:20.087Z,10.17
2017-09-26T03:31:47.383Z,8.50
2017-09-26T03:34:14.654Z,8.63
2017-09-26T03:36:41.949Z,9.43
2017-09-26T03:39:09.209Z,9.37
2017-09-26T03:41:36.504Z,10.13
2017-09-26T03:44:03.786Z,9.50
2017-09-26T03:46:31.054Z,9.07
2017-09-26T03:48:58.316Z,9.93
2017-09-26T03:51:25.651Z,9.60
2017-09-26T03:53:52.916Z,9.43
2017-09-26T03:56:20.222Z,9.77
2017-09-26T03:58:47.483Z,7.97
2017-09-26T04:01:14.742Z,8.77
2017-09-26T04:03:42.049Z,8.30
2017-09-26T04:06:09.302Z,8.80
2017-09-26T04:08:36.571Z,8.90
2017-09-26T04:11:03.855Z,9.30
2017-09-26T04:13:31.115Z,8.27
2017-09-26T04:15:59.306Z,9.10
2017-09-26T04:18:26.608Z,9.50
2017-09-26T04:20:53.870Z,9.27
2017-09-26T04:23:21.143Z,7.70
2017-09-26T04:25:48.418Z,9.40
2017-09-26T04:28:15.711Z,9.20
2017-09-26T04:30:43.013Z,7.93
2017-09-26T04:33:10.269Z,7.80
2017-09-26T04:35:37.549Z,8.40
2017-09-26T04:38:04.810Z,9.60
2017-09-26T04:40:32.095Z,8.83
2017-09-26T04:42:59.384Z,6.87
2017-09-26T04:45:26.679Z,8.67
2017-09-26T04:47:53.962Z,9.93
2017-09-26T04:50:21.243Z,8.73
2017-09-26T04:52:48.509Z,9.73
2017-09-26T04:55:15.805Z,8.33
2017-09-26T04:57:43.095Z,8.80
2017-09-26T05:00:10.387Z,8.67
2017-09-26T05:02:37.684Z,9.37
2017-09-26T05:05:04.946Z,9.43
2017-09-26T05:07:32.906Z,10.30
2017-09-26T05:10:00.195Z,10.00
2017-09-26T05:12:27.468Z,10.90
2017-09-26T05:14:54.743Z,10.60
2017-09-26T05:17:22.026Z,9.70
2017-09-26T05:19:49.286Z,9.67
2017-09-26T05:22:16.574Z,9.43
2017-09-26T05:24:43.831Z,7.07
2017-09-26T05:27:11.125Z,7.37
2017-09-26T05:29:38.383Z,5.90
2017-09-26T05:32:05.661Z,5.00
2017-09-26T05:34:32.934Z,5.10
2017-09-26T05:37:00.200Z,5.30
2017-09-26T05:39:27.483Z,5.03
2017-09-26T05:41:54.741Z,4.93
2017-09-26T05:44:22.018Z,5.40
2017-09-26T05:46:49.374Z,5.30
2017-09-26T05:49:16.631Z,4.43
2017-09-26T05:51:43.918Z,4.60
2017-09-26T05:54:11.310Z,4.03
2017-09-26T05:56:38.569Z,4.47
2017-09-26T05:59:05.854Z,4.50
2017-09-26T06:01:33.110Z,3.97
2017-09-26T06:04:00.371Z,3.97
2017-09-26T06:06:27.663Z,4.00
2017-09-26T06:08:54.947Z,3.77
2017-09-26T06:11:22.213Z,3.60
2017-09-26T06:13:49.465Z,3.57
2017-09-26T06:16:16.751Z,3.23
2017-09-26T06:18:44.040Z,3.17
2017-09-26T06:21:11.343Z,2.77
2017-09-26T06:23:38.602Z,3.20
2017-09-26T06:26:05.859Z,3.07
2017-09-26T06:28:33.151Z,3.23
2017-09-26T06:31:00.408Z,2.83
2017-09-26T06:33:27.698Z,3.00
2017-09-26T06:35:54.968Z,2.87
2017-09-26T06:38:22.268Z,3.40
2017-09-26T06:40:49.525Z,3.37
2017-09-26T06:43:16.776Z,3.20
2017-09-26T06:45:44.062Z,3.07
2017-09-26T06:48:11.320Z,3.30
2017-09-26T06:50:38.758Z,2.73
2017-09-26T06:53:06.019Z,2.77
2017-09-26T06:55:33.283Z,3.50
2017-09-26T06:58:00.555Z,4.70
2017-09-26T07:00:27.814Z,5.47
2017-09-26T07:02:55.107Z,5.60
2017-09-26T07:05:22.359Z,5.33
2017-09-26T07:07:49.623Z,5.77
2017-09-26T07:10:16.924Z,5.33
2017-09-26T07:12:44.190Z,6.77
2017-09-26T07:15:11.443Z,6.77
2017-09-26T07:17:38.747Z,6.90
2017-09-26T07:20:06.013Z,6.70
2017-09-26T07:22:33.316Z,6.97
2017-09-26T07:25:00.603Z,7.00
2017-09-26T07:27:27.908Z,7.57
2017-09-26T07:29:55.179Z,7.40
2017-09-26T07:32:22.439Z,7.10
2017-09-26T07:34:49.728Z,7.57
2017-09-26T07:37:16.983Z,7.80
2017-09-26T07:39:44.266Z,6.50
2017-09-26T07:42:11.559Z,8.73
2017-09-26T07:44:38.839Z,8.53
2017-09-26T07:47:06.118Z,8.37
2017-09-26T07:49:33.384Z,7.63
2017-09-26T07:52:00.683Z,9.17
2017-09-26T07:54:27.946Z,7.70
2017-09-26T07:56:55.210Z,8.00
2017-09-26T07:59:22.503Z,8.40
2017-09-26T08:01:49.768Z,8.30
2017-09-26T08:04:17.286Z,7.90
2017-09-26T08:06:44.886Z,7.93
2017-09-26T08:09:12.399Z,7.20
2017-09-26T08:11:39.759Z,7.13
2017-09-26T08:14:07.043Z,7.87
2017-09-26T08:16:34.311Z,8.27
2017-09-26T08:19:01.631Z,7.70
2017-09-26T08:21:28.934Z,7.37
2017-09-26T08:23:56.210Z,9.27
2017-09-26T08:26:23.483Z,10.20
2017-09-26T08:28:50.792Z,10.60
2017-09-26T08:31:18.085Z,10.27
2017-09-26T08:33:45.402Z,9.47
2017-09-26T08:36:12.699Z,9.83
2017-09-26T08:38:39.976Z,9.50
2017-09-26T08:41:07.279Z,9.67
2017-09-26T08:43:34.584Z,10.50
2017-09-26T08:46:01.867Z,9.43
2017-09-26T08:48:29.207Z,9.60
2017-09-26T08:50:56.571Z,9.10
2017-09-26T08:53:23.840Z,7.50
2017-09-26T08:55:51.134Z,8.40
2017-09-26T08:58:18.428Z,7.50
2017-09-26T09:00:45.714Z,7.30
2017-09-26T09:03:12.983Z,7.37
2017-09-26T09:05:40.273Z,7.53
2017-09-26T09:08:07.557Z,7.43
2017-09-26T09:10:34.810Z,7.93
2017-09-26T09:13:02.094Z,8.73
2017-09-26T09:15:29.359Z,8.27
2017-09-26T09:17:56.647Z,9.00
2017-09-26T09:20:23.926Z,9.90
2017-09-26T09:22:51.222Z,9.17
2017-09-26T09:25:18.480Z,8.50
2017-09-26T09:27:45.774Z,8.33
2017-09-26T09:30:13.026Z,7.20
2017-09-26T09:32:40.291Z,7.10
2017-09-26T09:35:07.571Z,7.87
2017-09-26T09:37:34.944Z,8.17
2017-09-26T09:40:02.224Z,8.17
2017-09-26T09:42:29.511Z,7.43
2017-09-26T09:44:56.810Z,7.43
2017-09-26T09:47:24.068Z,7.30
2017-09-26T09:49:51.419Z,7.50
2017-09-26T09:52:18.679Z,7.23
2017-09-26T09:54:45.942Z,8.60
2017-09-26T09:57:13.238Z,8.67
2017-09-26T09:59:40.527Z,10.00
2017-09-26T10:02:07.824Z,8.70
2017-09-26T10:04:35.123Z,13.90
2017-09-26T10:07:02.412Z,15.97
2017-09-26T10:09:29.683Z,16.50
2017-09-26T10:11:56.999Z,14.30
2017-09-26T10:14:24.259Z,15.60
2017-09-26T10:16:51.743Z,16.63
2017-09-26T10:19:19.042Z,15.50
2017-09-26T10:21:46.309Z,17.63
2017-09-26T10:24:13.607Z,19.47
2017-09-26T10:26:40.908Z,18.17
2017-09-26T10:29:08.172Z,17.77
2017-09-26T10:31:35.475Z,19.20
2017-09-26T10:34:02.752Z,19.07
2017-09-26T10:36:30.868Z,19.00
2017-09-26T10:38:58.168Z,18.30
2017-09-26T10:41:25.439Z,18.67
2017-09-26T10:43:52.734Z,18.80
2017-09-26T10:46:20.007Z,19.83
2017-09-26T10:48:47.311Z,19.77
2017-09-26T10:51:14.599Z,17.97
2017-09-26T10:53:41.871Z,19.30
2017-09-26T10:56:09.172Z,19.27
2017-09-26T10:58:36.450Z,18.77
2017-09-26T11:01:03.739Z,20.00
2017-09-26T11:03:31.034Z,18.70
2017-09-26T11:05:58.310Z,18.50
2017-09-26T11:08:25.618Z,18.10
2017-09-26T11:10:52.891Z,18.87
2017-09-26T11:13:20.165Z,18.63
2017-09-26T11:15:47.464Z,18.60
2017-09-26T11:18:14.738Z,19.50
2017-09-26T11:20:42.003Z,19.63
2017-09-26T11:23:09.301Z,18.30
2017-09-26T11:25:36.572Z,17.90
2017-09-26T11:28:03.871Z,18.87
2017-09-26T11:30:31.139Z,20.07
2017-09-26T11:32:58.438Z,18.23
2017-09-26T11:35:25.735Z,19.30
2017-09-26T11:37:53.007Z,20.10
2017-09-26T11:40:20.322Z,20.23
2017-09-26T11:42:47.596Z,19.30
2017-09-26T11:45:14.862Z,19.10
2017-09-26T11:47:43.219Z,19.07
2017-09-26T11:50:10.492Z,19.87
2017-09-26T11:52:37.782Z,19.10
2017-09-26T11:55:05.058Z,19.40
2017-09-26T11:57:32.387Z,19.77
2017-09-26T11:59:59.630Z,19.50
2017-09-26T12:02:26.912Z,19.10
2017-09-26T12:04:54.195Z,18.20
2017-09-26T12:07:21.468Z,18.67
2017-09-26T12:09:48.758Z,18.47
2017-09-26T12:12:16.028Z,18.47
2017-09-26T12:14:43.321Z,19.77
2017-09-26T12:17:10.597Z,18.07
2017-09-26T12:19:37.882Z,19.87
2017-09-26T12:22:05.154Z,19.33
2017-09-26T12:24:32.451Z,18.77
2017-09-26T12:26:59.728Z,19.20
2017-09-26T12:29:27.008Z,18.63
2017-09-26T12:31:54.274Z,18.70
2017-09-26T12:34:21.564Z,19.47
2017-09-26T12:36:48.838Z,17.50
2017-09-26T12:39:16.126Z,18.17
2017-09-26T12:41:43.407Z,18.30
2017-09-26T12:44:10.695Z,20.30
2017-09-26T12:46:37.960Z,19.70
2017-09-26T12:49:05.257Z,19.40
2017-09-26T12:51:32.525Z,18.87
2017-09-26T12:53:59.813Z,20.13
2017-09-26T12:56:27.091Z,19.93
2017-09-26T12:58:54.391Z,19.93
2017-09-26T13:01:21.683Z,19.77
2017-09-26T13:03:48.963Z,19.80
2017-09-26T13:06:16.250Z,18.67
2017-09-26T13:08:43.524Z,19.40
2017-09-26T13:11:10.818Z,19.67
2017-09-26T13:13:38.113Z,19.00
2017-09-26T13:16:05.387Z,18.83
2017-09-26T13:18:32.660Z,20.87
2017-09-26T13:20:59.947Z,18.77
2017-09-26T13:23:27.215Z,18.63
2017-09-26T13:25:54.507Z,20.00
2017-09-26T13:28:21.779Z,20.33
2017-09-26T13:30:49.106Z,18.97
2017-09-26T13:33:16.671Z,18.83
2017-09-26T13:35:43.959Z,18.37
2017-09-26T13:38:11.231Z,19.53
2017-09-26T13:40:38.519Z,19.83
2017-09-26T13:43:05.800Z,18.60
2017-09-26T13:45:33.115Z,18.20
2017-09-26T13:48:00.387Z,17.50
2017-09-26T13:50:27.660Z,19.27
2017-09-26T13:52:54.956Z,19.43
2017-09-26T13:55:22.229Z,18.47
2017-09-26T13:57:49.516Z,18.40
2017-09-26T14:00:16.790Z,16.77
2017-09-26T14:02:44.090Z,17.20
2017-09-26T14:05:11.407Z,16.73
2017-09-26T14:07:38.719Z,17.83
2017-09-26T14:10:06.015Z,15.57
2017-09-26T14:12:33.310Z,15.70
2017-09-26T14:15:00.603Z,17.20
2017-09-26T14:17:27.872Z,17.37
2017-09-26T14:19:55.176Z,17.63
2017-09-26T14:22:22.446Z,16.97
2017-09-26T14:24:49.797Z,18.40
2017-09-26T14:27:17.775Z,18.20
2017-09-26T14:29:45.079Z,17.00
2017-09-26T14:32:12.350Z,18.43
2017-09-26T14:34:39.827Z,20.03
2017-09-26T14:37:07.362Z,19.83
2017-09-26T14:39:34.635Z,18.90
2017-09-26T14:42:01.902Z,20.10
2017-09-26T14:44:29.199Z,19.23
2017-09-26T14:46:56.502Z,20.27
2017-09-26T14:49:23.770Z,18.97
2017-09-26T14:51:51.066Z,20.37
2017-09-26T14:54:18.347Z,21.17
2017-09-26T14:56:45.643Z,21.00
2017-09-26T14:59:12.978Z,23.20
2017-09-26T15:01:40.259Z,21.53
2017-09-26T15:04:07.540Z,20.10
2017-09-26T15:06:34.845Z,19.90
2017-09-26T15:09:02.111Z,22.77
2017-09-26T15:11:29.407Z,20.97
2017-09-26T15:13:56.711Z,20.80
2017-09-26T15:16:23.988Z,19.17
2017-09-26T15:18:51.255Z,18.77
2017-09-26T15:21:18.555Z,20.33
2017-09-26T15:23:45.826Z,19.50
2017-09-26T15:26:13.123Z,18.70
2017-09-26T15:28:40.395Z,19.57
2017-09-26T15:31:07.694Z,17.73
2017-09-26T15:33:34.967Z,16.33
2017-09-26T15:36:02.309Z,14.87
2017-09-26T15:38:29.578Z,15.70
2017-09-26T15:40:56.862Z,16.67
2017-09-26T15:43:24.163Z,16.70
2017-09-26T15:45:51.430Z,16.40
2017-09-26T15:48:18.734Z,15.00
2017-09-26T15:50:46.123Z,16.53
2017-09-26T15:53:13.393Z,16.93
2017-09-26T15:55:40.660Z,17.17
2017-09-26T15:58:07.954Z,15.30
2017-09-26T16:00:35.231Z,16.83
2017-09-26T16:03:02.539Z,16.30
2017-09-26T16:05:31.656Z,15.83
2017-09-26T16:08:08.768Z,14.23
2017-09-26T16:10:39.958Z,14.70
2017-09-26T16:13:07.226Z,13.93
2017-09-26T16:15:34.503Z,15.20
2017-09-26T16:18:01.807Z,14.43
2017-09-26T16:20:29.071Z,13.80
2017-09-26T16:22:56.371Z,14.70
2017-09-26T16:25:23.643Z,13.90
2017-09-26T16:27:50.956Z,12.13
2017-09-26T16:30:18.228Z,13.67
2017-09-26T16:32:45.495Z,12.83
2017-09-26T16:35:12.811Z,12.80
2017-09-26T16:37:40.135Z,13.87
2017-09-26T16:40:07.398Z,13.17
2017-09-26T16:42:34.711Z,13.03
2017-09-26T16:45:01.987Z,13.10
2017-09-26T16:47:29.259Z,14.10
2017-09-26T16:49:56.563Z,14.53
2017-09-26T16:52:23.869Z,13.67
2017-09-26T16:54:51.142Z,13.83
2017-09-26T16:57:18.420Z,15.30
2017-09-26T16:59:45.715Z,13.90
2017-09-26T17:02:13.015Z,13.30
2017-09-26T17:04:40.296Z,13.47
2017-09-26T17:07:07.611Z,13.37
2017-09-26T17:09:34.889Z,13.70
2017-09-26T17:12:02.157Z,13.47
2017-09-26T17:14:29.467Z,12.00
2017-09-26T17:16:56.747Z,13.20
2017-09-26T17:19:24.010Z,13.90
2017-09-26T17:21:51.313Z,13.40
2017-09-26T17:24:18.617Z,13.70
2017-09-26T17:26:45.883Z,14.53
2017-09-26T17:29:13.191Z,13.40
2017-09-26T17:31:40.494Z,12.70
2017-09-26T17:34:07.762Z,12.30
2017-09-26T17:36:35.066Z,11.53
2017-09-26T17:39:02.337Z,11.77
2017-09-26T17:41:29.611Z,12.90
2017-09-26T17:43:56.958Z,14.07
2017-09-26T17:46:24.227Z,12.23
2017-09-26T17:48:51.503Z,12.63
2017-09-26T17:51:18.814Z,13.30
2017-09-26T17:53:46.086Z,13.43
2017-09-26T17:56:13.369Z,13.43
2017-09-26T17:58:40.658Z,13.63
2017-09-26T18:01:07.932Z,13.20
2017-09-26T18:03:35.306Z,13.43
2017-09-26T18:06:02.609Z,13.27
2017-09-26T18:08:29.854Z,14.10
2017-09-26T18:10:57.176Z,13.67
2017-09-26T18:13:24.440Z,15.30
2017-09-26T18:15:51.746Z,13.30
2017-09-26T18:18:19.015Z,13.90
2017-09-26T18:20:46.320Z,12.40
2017-09-26T18:23:13.587Z,13.43
2017-09-26T18:25:40.882Z,11.93
2017-09-26T18:28:08.160Z,11.97
2017-09-26T18:30:35.448Z,14.10
2017-09-26T18:33:02.744Z,13.23
2017-09-26T18:35:30.064Z,12.80
2017-09-26T18:37:57.340Z,13.43
2017-09-26T18:40:24.626Z,13.80
2017-09-26T18:42:51.930Z,14.20
2017-09-26T18:45:19.216Z,14.37
2017-09-26T18:47:46.510Z,13.97
2017-09-26T18:50:13.791Z,14.63
2017-09-26T18:52:41.072Z,14.43
2017-09-26T18:55:08.372Z,12.67
2017-09-26T18:57:35.667Z,14.00
2017-09-26T19:00:02.947Z,13.30
2017-09-26T19:02:30.243Z,13.20
2017-09-26T19:04:57.606Z,13.40
2017-09-26T19:07:24.871Z,14.13
2017-09-26T19:09:52.151Z,13.17
2017-09-26T19:12:19.447Z,12.53
2017-09-26T19:14:46.750Z,14.60
2017-09-26T19:17:14.027Z,15.33
2017-09-26T19:19:41.324Z,14.27
2017-09-26T19:22:08.868Z,15.50
2017-09-26T19:24:36.162Z,14.60
2017-09-26T19:27:03.454Z,13.87
2017-09-26T19:29:30.750Z,14.10
2017-09-26T19:31:58.047Z,13.30
2017-09-26T19:34:25.321Z,14.27
2017-09-26T19:36:52.632Z,16.20
2017-09-26T19:39:19.898Z,14.93
2017-09-26T19:41:47.203Z,15.03
2017-09-26T19:44:14.512Z,14.63
2017-09-26T19:46:41.779Z,13.40
2017-09-26T19:49:09.078Z,14.30
2017-09-26T19:51:36.356Z,14.13
2017-09-26T19:54:03.663Z,13.90
2017-09-26T19:56:30.935Z,12.93
2017-09-26T19:58:58.236Z,13.30
2017-09-26T20:01:25.507Z,13.93
2017-09-26T20:03:52.783Z,14.47
2017-09-26T20:06:20.093Z,13.37
2017-09-26T20:08:47.423Z,14.93
2017-09-26T20:11:14.727Z,14.93
2017-09-26T20:13:42.031Z,16.10
2017-09-26T20:16:09.355Z,13.97
2017-09-26T20:18:36.618Z,13.33
2017-09-26T20:21:03.918Z,14.00
2017-09-26T20:23:31.196Z,15.83
2017-09-26T20:25:58.494Z,14.97
2017-09-26T20:28:25.778Z,14.07
2017-09-26T20:30:53.083Z,14.80
2017-09-26T20:33:20.631Z,15.40
2017-09-26T20:35:47.935Z,14.87
2017-09-26T20:38:15.222Z,14.87
2017-09-26T20:40:42.483Z,15.30
2017-09-26T20:43:09.807Z,14.10
2017-09-26T20:45:37.243Z,15.90
2017-09-26T20:48:04.546Z,15.57
2017-09-26T20:50:31.886Z,14.97
2017-09-26T20:52:59.134Z,15.63
2017-09-26T20:55:26.411Z,15.10
2017-09-26T20:57:53.739Z,15.30
2017-09-26T21:00:21.047Z,14.70
2017-09-26T21:02:48.319Z,14.63
2017-09-26T21:05:15.626Z,14.33
2017-09-26T21:07:42.925Z,14.87
2017-09-26T21:10:10.219Z,15.67
2017-09-26T21:12:37.486Z,15.50
2017-09-26T21:15:04.789Z,14.57
2017-09-26T21:17:32.082Z,15.33
2017-09-26T21:19:59.459Z,14.70
2017-09-26T21:22:26.744Z,13.37
2017-09-26T21:24:54.020Z,14.43
2017-09-26T21:27:21.292Z,12.50
2017-09-26T21:29:48.584Z,14.07
2017-09-26T21:32:15.907Z,13.50
2017-09-26T21:34:43.179Z,12.97
2017-09-26T21:37:10.446Z,14.43
2017-09-26T21:39:37.759Z,13.57
2017-09-26T21:42:05.040Z,13.83
2017-09-26T21:44:32.336Z,14.30
2017-09-26T21:46:59.661Z,15.50
2017-09-26T21:49:26.954Z,14.00
2017-09-26T21:51:54.246Z,12.80
2017-09-26T21:54:21.527Z,14.20
2017-09-26T21:56:48.830Z,14.27
2017-09-26T21:59:16.149Z,16.13
2017-09-26T22:01:43.415Z,15.27
2017-09-26T22:04:10.723Z,13.63
2017-09-26T22:06:38.012Z,13.37
2017-09-26T22:09:05.290Z,12.77
2017-09-26T22:11:32.632Z,13.77
2017-09-26T22:13:59.898Z,15.13
2017-09-26T22:16:27.186Z,15.10
2017-09-26T22:18:54.523Z,15.60
2017-09-26T22:21:21.818Z,15.00
2017-09-26T22:23:49.127Z,14.93
2017-09-26T22:26:16.441Z,13.33
2017-09-26T22:28:43.739Z,14.63
2017-09-26T22:31:11.036Z,14.57
2017-09-26T22:33:38.340Z,14.87
2017-09-26T22:36:05.624Z,15.20
2017-09-26T22:38:32.907Z,15.40
2017-09-26T22:41:00.220Z,17.10
2017-09-26T22:43:27.502Z,15.33
2017-09-26T22:45:54.823Z,13.60
2017-09-26T22:48:22.172Z,14.00
2017-09-26T22:50:49.466Z,14.33
2017-09-26T22:53:16.776Z,15.47
2017-09-26T22:55:44.092Z,15.83
2017-09-26T22:58:11.360Z,14.43
2017-09-26T23:00:39.179Z,14.70
2017-09-26T23:03:06.451Z,14.67
2017-09-26T23:05:33.794Z,14.17
2017-09-26T23:08:01.179Z,14.33
2017-09-26T23:10:28.450Z,14.43
2017-09-26T23:12:55.755Z,13.53
2017-09-26T23:15:23.064Z,16.50
2017-09-26T23:17:50.358Z,14.10
2017-09-26T23:20:17.716Z,13.90
2017-09-26T23:22:44.987Z,15.80
2017-09-26T23:25:12.274Z,14.70
2017-09-26T23:27:39.587Z,14.37
2017-09-26T23:30:06.850Z,15.07
2017-09-26T23:32:34.159Z,14.17
2017-09-26T23:35:01.430Z,14.10
2017-09-26T23:37:28.698Z,15.40
2017-09-26T23:39:56.005Z,16.30
2017-09-26T23:42:23.275Z,15.47
2017-09-26T23:44:50.571Z,15.10
2017-09-26T23:47:17.857Z,13.67
2017-09-26T23:49:45.153Z,15.07
2017-09-26T23:52:12.503Z,13.53
2017-09-26T23:54:39.766Z,13.60
2017-09-26T23:57:07.038Z,16.00
2017-09-26T23:59:34.383Z,14.30
